Time;durP1;ratioP1;P1;durP2;ratioP2;P2;SDS_P1;SDS_P2;PMS_P1;PMS_P2;Temp;Humidity;BMP_temperature;BMP_pressure;BME280_temperature;BME280_humidity;BME280_pressure;Samples;Min_cycle;Max_cycle;Signal;HPM_P1;HPM_P2
2021/01/15 00:00:03;;;;;;;13.77;7.63;;;-0.20;92.60;;;;;;6275018;28;20474;-64
2021/01/15 00:03:05;;;;;;;12.40;8.33;;;-0.20;92.60;;;;;;6274348;28;20474;-63
2021/01/15 00:06:11;;;;;;;14.80;9.97;;;-0.20;92.60;;;;;;6275309;28;20505;-63
2021/01/15 00:09:14;;;;;;;12.43;8.83;;;-0.30;92.30;;;;;;6275199;28;20470;-63
2021/01/15 00:12:16;;;;;;;8.60;7.43;;;-0.40;92.70;;;;;;6274682;28;20470;-63
2021/01/15 00:15:19;;;;;;;14.60;10.73;;;-0.50;92.40;;;;;;6274751;28;20808;-63
2021/01/15 00:18:22;;;;;;;9.33;7.73;;;-0.40;92.80;;;;;;6274712;28;20478;-64
2021/01/15 00:21:25;;;;;;;13.90;10.03;;;-0.40;92.80;;;;;;6274804;28;20466;-64
2021/01/15 00:24:27;;;;;;;13.97;10.30;;;-0.30;92.70;;;;;;6274871;28;20470;-63
2021/01/15 00:27:30;;;;;;;17.60;11.37;;;-0.30;92.70;;;;;;6274771;28;20580;-63
2021/01/15 00:30:33;;;;;;;20.40;14.30;;;-0.20;92.80;;;;;;6274650;28;20482;-63
2021/01/15 00:33:35;;;;;;;15.70;10.37;;;-0.30;92.70;;;;;;6274714;28;20481;-70
2021/01/15 00:36:37;;;;;;;14.47;9.60;;;-0.30;92.80;;;;;;6274402;28;20470;-71
2021/01/15 00:39:40;;;;;;;12.80;10.37;;;-0.30;92.90;;;;;;6252512;28;20471;-70
2021/01/15 00:42:43;;;;;;;12.60;7.63;;;-0.30;93.00;;;;;;6249689;28;20471;-64
2021/01/15 00:45:46;;;;;;;13.73;7.57;;;-0.30;93.10;;;;;;6267003;28;20481;-68
2021/01/15 00:48:49;;;;;;;11.47;7.60;;;-0.40;92.80;;;;;;6277851;28;20485;-70
2021/01/15 00:51:53;;;;;;;11.47;7.63;;;-0.50;92.90;;;;;;6275930;28;20477;-69
2021/01/15 00:54:57;;;;;;;11.47;8.50;;;-0.80;93.30;;;;;;6279376;28;20494;-71
2021/01/15 00:58:04;;;;;;;14.20;8.60;;;-0.80;93.70;;;;;;6278495;28;20545;-71
2021/01/15 01:01:06;;;;;;;10.17;7.77;;;-0.80;93.80;;;;;;6276508;28;20476;-64
2021/01/15 01:04:09;;;;;;;11.57;7.50;;;-0.90;93.90;;;;;;6275220;28;20985;-67
2021/01/15 01:07:11;;;;;;;14.50;8.07;;;-0.90;94.10;;;;;;6274807;28;20471;-66
2021/01/15 01:10:13;;;;;;;9.73;7.53;;;-0.90;94.20;;;;;;6274836;28;20806;-64
2021/01/15 01:13:16;;;;;;;13.50;7.63;;;-0.90;94.10;;;;;;6273819;28;20474;-62
2021/01/15 01:16:20;;;;;;;10.47;7.47;;;-0.90;94.20;;;;;;6282437;28;20765;-68
2021/01/15 01:19:22;;;;;;;11.57;8.10;;;-0.80;94.60;;;;;;6268078;28;20969;-73
2021/01/15 01:22:24;;;;;;;13.37;9.50;;;-0.80;94.70;;;;;;6254600;28;20970;-67
2021/01/15 01:25:26;;;;;;;16.83;8.63;;;-0.80;94.60;;;;;;6254015;28;20466;-71
2021/01/15 01:28:30;;;;;;;12.23;8.37;;;-0.70;94.50;;;;;;6253948;28;20632;-68
2021/01/15 01:31:32;;;;;;;10.40;8.07;;;-0.70;94.50;;;;;;6254019;28;20478;-67
2021/01/15 01:34:34;;;;;;;17.37;8.53;;;-0.80;94.60;;;;;;6253546;28;20471;-66
2021/01/15 01:37:36;;;;;;;12.53;8.90;;;-0.80;94.60;;;;;;6253936;28;20822;-66
2021/01/15 01:40:39;;;;;;;12.77;8.03;;;-0.70;94.40;;;;;;6253309;28;20831;-69
2021/01/15 01:43:41;;;;;;;10.50;8.23;;;-0.90;94.40;;;;;;6253529;28;20467;-70
2021/01/15 01:46:44;;;;;;;13.70;7.60;;;-0.90;94.60;;;;;;6276878;28;20592;-65
2021/01/15 01:49:47;;;;;;;10.63;7.50;;;-0.90;94.70;;;;;;6278333;28;20518;-67
2021/01/15 01:52:49;;;;;;;7.63;6.73;;;-1.00;95.00;;;;;;6278193;28;20478;-70
2021/01/15 01:55:52;;;;;;;8.10;6.80;;;-1.10;95.30;;;;;;6278168;28;20474;-70
2021/01/15 01:58:56;;;;;;;11.00;7.60;;;-1.00;95.40;;;;;;6277794;28;20480;-67
2021/01/15 02:01:59;;;;;;;8.83;6.60;;;-1.00;95.40;;;;;;6277817;28;20988;-67
2021/01/15 02:05:01;;;;;;;13.00;8.30;;;-1.00;95.30;;;;;;6277726;28;20466;-68
2021/01/15 02:08:04;;;;;;;9.97;7.00;;;-1.00;95.20;;;;;;6275982;28;20474;-68
2021/01/15 02:11:17;;;;;;;13.57;7.63;;;-1.10;95.70;;;;;;6275621;28;20481;-68
2021/01/15 02:14:28;;;;;;;10.10;7.40;;;-1.10;96.00;;;;;;6275556;28;20478;-68
2021/01/15 02:17:35;;;;;;;7.73;6.80;;;-1.20;95.70;;;;;;6266429;28;20490;-69
2021/01/15 02:20:50;;;;;;;8.80;7.20;;;-1.20;96.30;;;;;;6276241;28;20508;-68
2021/01/15 02:24:01;;;;;;;13.17;9.03;;;-1.10;95.90;;;;;;6278086;28;20451;-67
2021/01/15 02:27:21;;;;;;;8.27;6.43;;;-1.20;96.00;;;;;;6275846;28;20462;-68
2021/01/15 02:30:40;;;;;;;7.57;6.30;;;-1.10;95.90;;;;;;6277822;28;20477;-68
2021/01/15 02:33:54;;;;;;;8.03;5.97;;;-1.00;95.90;;;;;;6277626;28;20478;-68
2021/01/15 02:37:05;;;;;;;8.87;7.33;;;-1.00;95.90;;;;;;6277685;28;20470;-68
2021/01/15 02:40:17;;;;;;;9.87;6.50;;;-1.00;95.60;;;;;;6277475;28;20974;-69
2021/01/15 02:43:21;;;;;;;10.77;7.50;;;-1.00;95.50;;;;;;6277762;28;20482;-68
2021/01/15 02:46:46;;;;;;;11.07;7.30;;;-1.10;95.50;;;;;;6277797;28;20482;-68
2021/01/15 02:49:50;;;;;;;9.30;7.17;;;-1.20;95.50;;;;;;6277738;28;20474;-68
2021/01/15 02:52:53;;;;;;;13.90;7.60;;;-1.20;95.80;;;;;;6277299;28;20478;-68
2021/01/15 02:55:56;;;;;;;10.60;7.70;;;-1.10;96.00;;;;;;6277125;28;20817;-68
2021/01/15 02:58:58;;;;;;;13.10;9.27;;;-1.10;95.80;;;;;;6277195;28;20474;-69
2021/01/15 03:02:13;;;;;;;13.70;8.50;;;-1.20;95.60;;;;;;6277291;28;20478;-68
2021/01/15 03:05:20;;;;;;;9.00;7.77;;;-1.30;95.80;;;;;;6277179;28;20474;-69
2021/01/15 03:08:24;;;;;;;16.23;8.67;;;-1.40;95.60;;;;;;6277731;28;20485;-68
2021/01/15 03:11:27;;;;;;;11.57;7.07;;;-1.40;95.80;;;;;;6276939;28;20470;-68
2021/01/15 03:14:32;;;;;;;9.90;7.43;;;-1.40;95.80;;;;;;6276744;28;20486;-69
2021/01/15 03:17:38;;;;;;;11.87;8.10;;;-1.30;95.80;;;;;;6267523;28;20454;-67
2021/01/15 03:20:42;;;;;;;9.27;7.63;;;-1.30;95.80;;;;;;6277127;28;20419;-67
2021/01/15 03:23:44;;;;;;;10.10;8.27;;;-1.30;96.00;;;;;;6276939;28;20434;-67
2021/01/15 03:26:46;;;;;;;7.70;6.97;;;-1.30;95.80;;;;;;6276493;28;20906;-69
2021/01/15 03:29:51;;;;;;;12.00;8.00;;;-1.40;95.60;;;;;;6276606;28;20458;-68
2021/01/15 03:32:55;;;;;;;11.20;8.37;;;-1.40;95.60;;;;;;6276612;28;20454;-69
2021/01/15 03:35:58;;;;;;;12.20;7.50;;;-1.50;95.60;;;;;;6276808;28;20545;-68
2021/01/15 03:39:01;;;;;;;14.67;7.57;;;-1.60;95.80;;;;;;6276239;28;20474;-68
2021/01/15 03:42:04;;;;;;;14.37;10.60;;;-1.60;96.10;;;;;;6276373;28;20484;-68
2021/01/15 03:45:07;;;;;;;8.87;7.87;;;-1.60;96.00;;;;;;6276491;28;20462;-68
2021/01/15 03:48:11;;;;;;;9.63;7.20;;;-1.50;96.00;;;;;;6276052;28;20537;-68
2021/01/15 03:51:15;;;;;;;11.63;7.80;;;-1.50;95.80;;;;;;6276365;28;20481;-68
2021/01/15 03:54:17;;;;;;;12.37;6.87;;;-1.50;95.70;;;;;;6275802;28;20477;-68
2021/01/15 03:57:19;;;;;;;8.50;7.30;;;-1.50;95.80;;;;;;6276120;28;20479;-69
2021/01/15 04:00:22;;;;;;;8.83;6.37;;;-1.50;95.80;;;;;;6275699;28;21001;-69
2021/01/15 04:03:27;;;;;;;10.30;7.60;;;-1.50;95.80;;;;;;6275931;28;20463;-68
2021/01/15 04:06:30;;;;;;;12.03;7.10;;;-1.50;95.70;;;;;;6275586;28;20953;-68
2021/01/15 04:09:32;;;;;;;13.80;6.13;;;-1.50;96.10;;;;;;6275715;28;20545;-68
2021/01/15 04:12:34;;;;;;;6.67;6.00;;;-1.60;95.90;;;;;;6275538;28;20473;-68
2021/01/15 04:15:36;;;;;;;10.77;6.53;;;-1.50;95.90;;;;;;6275695;28;20470;-68
2021/01/15 04:18:38;;;;;;;8.70;6.70;;;-1.60;95.70;;;;;;6275525;28;20475;-68
2021/01/15 04:21:42;;;;;;;8.80;6.40;;;-1.60;95.80;;;;;;6271345;28;20527;-68
2021/01/15 04:24:44;;;;;;;14.53;7.97;;;-1.50;95.90;;;;;;6275016;28;20481;-68
2021/01/15 04:27:46;;;;;;;10.33;7.20;;;-1.50;95.80;;;;;;6272853;28;20470;-68
2021/01/15 04:30:48;;;;;;;8.20;6.30;;;-1.50;95.80;;;;;;6273190;28;20477;-69
2021/01/15 04:33:51;;;;;;;7.10;6.40;;;-1.70;95.60;;;;;;6273103;28;20482;-67
2021/01/15 04:36:54;;;;;;;16.97;7.40;;;-1.80;95.60;;;;;;6272890;28;20985;-68
2021/01/15 04:39:56;;;;;;;8.60;7.70;;;-1.90;95.70;;;;;;6273929;28;20918;-68
2021/01/15 04:43:01;;;;;;;8.63;7.20;;;-2.00;96.10;;;;;;6275058;28;20471;-68
2021/01/15 04:46:04;;;;;;;7.10;6.40;;;-2.00;96.20;;;;;;6274914;28;20585;-67
2021/01/15 04:49:10;;;;;;;10.17;7.13;;;-1.90;96.30;;;;;;6274418;28;20493;-68
2021/01/15 04:52:14;;;;;;;9.20;6.97;;;-1.90;96.30;;;;;;6275475;28;20470;-69
2021/01/15 04:55:19;;;;;;;11.73;7.83;;;-1.90;96.10;;;;;;6274507;28;20549;-68
2021/01/15 04:58:24;;;;;;;8.37;7.57;;;-2.00;96.10;;;;;;6274624;28;20810;-68
2021/01/15 05:01:26;;;;;;;8.10;7.30;;;-2.10;96.10;;;;;;6274752;28;20488;-68
2021/01/15 05:04:31;;;;;;;11.87;7.53;;;-2.10;96.30;;;;;;6275114;28;20911;-68
2021/01/15 05:07:37;;;;;;;9.87;8.17;;;-2.00;96.40;;;;;;6275478;28;20474;-68
2021/01/15 05:10:41;;;;;;;8.70;7.03;;;-2.00;96.10;;;;;;6274627;28;20795;-68
2021/01/15 05:13:44;;;;;;;6.20;5.60;;;-2.10;96.10;;;;;;6274564;28;20486;-67
2021/01/15 05:16:48;;;;;;;4.20;3.90;;;-2.10;96.00;;;;;;6274658;28;20481;-68
2021/01/15 05:19:55;;;;;;;6.13;5.53;;;-2.10;95.80;;;;;;6274449;28;20473;-67
2021/01/15 05:23:01;;;;;;;5.40;4.80;;;-2.10;95.70;;;;;;6274454;28;20845;-68
2021/01/15 05:26:03;;;;;;;6.07;5.03;;;-2.20;95.70;;;;;;6274329;28;20478;-67
2021/01/15 05:29:07;;;;;;;10.83;6.80;;;-2.30;95.70;;;;;;6269792;28;20494;-68
2021/01/15 05:32:09;;;;;;;5.80;4.87;;;-2.30;95.90;;;;;;6274935;28;20491;-68
2021/01/15 05:35:12;;;;;;;7.37;4.90;;;-2.30;95.60;;;;;;6274736;28;20481;-68
2021/01/15 05:38:16;;;;;;;8.93;5.17;;;-2.20;95.50;;;;;;6274527;28;20493;-68
2021/01/15 05:41:22;;;;;;;9.40;5.20;;;-2.20;95.30;;;;;;6273971;28;20509;-68
2021/01/15 05:44:26;;;;;;;9.50;5.83;;;-2.10;95.30;;;;;;6274212;28;20466;-68
2021/01/15 05:47:42;;;;;;;6.67;4.63;;;-2.20;95.20;;;;;;6273706;28;20474;-67
2021/01/15 05:50:46;;;;;;;5.73;4.90;;;-2.20;95.20;;;;;;6274076;28;20439;-67
2021/01/15 05:53:50;;;;;;;6.57;5.17;;;-2.20;95.50;;;;;;6274040;28;20493;-67
2021/01/15 05:56:52;;;;;;;10.40;6.17;;;-2.20;95.20;;;;;;6273898;28;20474;-67
2021/01/15 05:59:54;;;;;;;6.23;5.60;;;-2.30;95.10;;;;;;6273708;28;20588;-68
2021/01/15 06:02:57;;;;;;;6.10;5.50;;;-2.20;95.20;;;;;;6278109;28;20551;-67
2021/01/15 06:05:59;;;;;;;9.57;6.07;;;-2.30;95.20;;;;;;6278782;28;20466;-68
2021/01/15 06:09:05;;;;;;;8.53;6.50;;;-2.30;95.40;;;;;;6278505;28;20473;-67
2021/01/15 06:12:09;;;;;;;9.80;5.90;;;-2.30;95.40;;;;;;6278910;28;20481;-68
2021/01/15 06:15:12;;;;;;;8.73;6.43;;;-2.30;95.40;;;;;;6278690;28;20481;-68
2021/01/15 06:18:19;;;;;;;7.60;5.30;;;-2.40;95.40;;;;;;6278477;28;20470;-68
2021/01/15 06:21:30;;;;;;;10.60;5.97;;;-2.40;95.30;;;;;;6278559;28;20466;-68
2021/01/15 06:24:34;;;;;;;8.40;5.87;;;-2.50;95.40;;;;;;6278301;28;20988;-67
2021/01/15 06:27:37;;;;;;;13.50;7.17;;;-2.40;95.50;;;;;;6277829;28;20989;-67
2021/01/15 06:30:39;;;;;;;7.93;7.13;;;-2.40;95.30;;;;;;6273777;28;20482;-67
2021/01/15 06:34:00;;;;;;;8.93;7.90;;;-2.40;95.20;;;;;;6278258;28;20478;-68
2021/01/15 06:37:03;;;;;;;8.80;7.90;;;-2.40;95.40;;;;;;6277939;28;20477;-68
2021/01/15 06:40:11;;;;;;;8.67;7.77;;;-2.50;95.10;;;;;;6277142;28;20474;-68
2021/01/15 06:43:21;;;;;;;21.07;15.03;;;-2.50;95.30;;;;;;6277492;28;20604;-68
2021/01/15 06:46:31;;;;;;;15.13;10.50;;;-2.50;95.30;;;;;;6275782;28;20486;-68
2021/01/15 06:49:36;;;;;;;12.20;11.00;;;-2.50;95.40;;;;;;6275635;28;20475;-68
2021/01/15 06:52:43;;;;;;;13.80;11.00;;;-2.50;95.40;;;;;;6275419;28;20561;-67
2021/01/15 06:55:47;;;;;;;10.90;9.90;;;-2.40;95.20;;;;;;6275837;28;20954;-68
2021/01/15 06:58:57;;;;;;;10.53;8.10;;;-2.40;95.20;;;;;;6277112;28;20470;-66
2021/01/15 07:02:11;;;;;;;12.57;11.20;;;-2.40;95.20;;;;;;6277415;28;20474;-67
2021/01/15 07:05:15;;;;;;;13.90;9.13;;;-2.30;95.30;;;;;;6276087;28;20478;-67
2021/01/15 07:08:17;;;;;;;11.27;9.40;;;-2.30;95.20;;;;;;6275386;28;20474;-67
2021/01/15 07:11:23;;;;;;;10.67;7.10;;;-2.30;95.20;;;;;;6276061;28;20481;-67
2021/01/15 07:14:27;;;;;;;10.33;6.87;;;-2.30;95.10;;;;;;6275468;28;20482;-67
2021/01/15 07:17:34;;;;;;;11.07;8.40;;;-2.20;95.40;;;;;;6276044;28;20479;-67
2021/01/15 07:20:45;;;;;;;10.57;8.27;;;-2.20;95.10;;;;;;6276857;28;20484;-66
2021/01/15 07:23:53;;;;;;;9.03;8.07;;;-2.20;95.10;;;;;;6277027;28;20432;-66
2021/01/15 07:26:57;;;;;;;18.53;15.20;;;-2.20;94.90;;;;;;6277059;28;20477;-68
2021/01/15 07:30:00;;;;;;;16.73;11.17;;;-2.20;94.80;;;;;;6276340;28;20540;-68
2021/01/15 07:33:07;;;;;;;13.67;10.50;;;-2.10;95.00;;;;;;6267121;28;20474;-67
2021/01/15 07:36:30;;;;;;;9.53;7.97;;;-2.10;94.90;;;;;;6276569;28;20824;-66
2021/01/15 07:39:32;;;;;;;11.23;8.80;;;-2.00;94.70;;;;;;6276355;28;20479;-67
2021/01/15 07:42:59;;;;;;;10.20;9.20;;;-2.00;94.80;;;;;;6275814;28;20870;-67
2021/01/15 07:46:03;;;;;;;8.37;7.57;;;-1.90;94.70;;;;;;6276075;28;20474;-65
2021/01/15 07:49:06;;;;;;;13.83;8.53;;;-1.90;94.80;;;;;;6276593;28;20557;-66
2021/01/15 07:52:09;;;;;;;8.87;7.70;;;-1.80;94.70;;;;;;6276009;28;20475;-67
2021/01/15 07:55:11;;;;;;;10.60;8.77;;;-1.70;94.70;;;;;;6276276;28;20466;-67
2021/01/15 07:58:17;;;;;;;17.70;10.50;;;-1.70;94.40;;;;;;6275750;28;20484;-66
2021/01/15 08:01:21;;;;;;;11.77;9.57;;;-1.60;94.30;;;;;;6270613;28;20813;-67
2021/01/15 08:04:23;;;;;;;8.43;7.30;;;-1.60;94.20;;;;;;6262751;28;20470;-67
2021/01/15 08:07:32;;;;;;;8.80;6.70;;;-1.60;94.40;;;;;;6251023;28;20499;-67
2021/01/15 08:10:44;;;;;;;8.67;7.60;;;-1.60;94.60;;;;;;6256233;28;20585;-67
2021/01/15 08:13:48;;;;;;;6.10;5.23;;;-1.40;94.70;;;;;;6258969;28;21066;-68
2021/01/15 08:16:51;;;;;;;7.40;5.43;;;-1.40;94.60;;;;;;6250653;28;20467;-67
2021/01/15 08:19:53;;;;;;;7.13;6.47;;;-1.20;94.70;;;;;;6250632;28;20479;-67
2021/01/15 08:22:56;;;;;;;11.33;6.77;;;-1.10;94.40;;;;;;6250356;28;20475;-67
2021/01/15 08:26:26;;;;;;;8.30;5.90;;;-1.00;94.20;;;;;;6249843;28;20532;-67
2021/01/15 08:29:32;;;;;;;6.00;5.13;;;-1.00;94.10;;;;;;6250471;28;20479;-67
2021/01/15 08:32:40;;;;;;;6.00;5.30;;;-0.90;94.00;;;;;;6250294;28;20455;-65
2021/01/15 08:35:42;;;;;;;7.30;5.80;;;-0.80;93.70;;;;;;6244183;28;20847;-66
2021/01/15 08:38:45;;;;;;;10.67;5.60;;;-0.70;93.50;;;;;;6260876;28;20474;-65
2021/01/15 08:41:53;;;;;;;10.97;6.00;;;-0.60;93.40;;;;;;6261728;28;20454;-66
2021/01/15 08:44:59;;;;;;;7.73;5.03;;;-0.50;93.10;;;;;;6259811;28;20470;-66
2021/01/15 08:48:02;;;;;;;5.70;5.00;;;-0.40;92.80;;;;;;6261062;28;20471;-66
2021/01/15 08:51:09;;;;;;;8.77;6.33;;;-0.30;92.60;;;;;;6249904;28;20471;-67
2021/01/15 08:54:12;;;;;;;6.90;6.17;;;-0.10;92.50;;;;;;6249793;28;20475;-67
2021/01/15 08:57:14;;;;;;;7.50;5.63;;;0.00;92.20;;;;;;6250029;28;20467;-67
2021/01/15 09:00:19;;;;;;;7.63;5.20;;;0.00;91.90;;;;;;6259488;28;20974;-65
2021/01/15 09:03:22;;;;;;;7.20;4.70;;;0.10;91.60;;;;;;6263547;28;20734;-64
2021/01/15 09:06:27;;;;;;;12.47;5.60;;;0.20;91.50;;;;;;6252957;28;20544;-64
2021/01/15 09:09:30;;;;;;;7.33;5.20;;;0.30;91.30;;;;;;6260903;28;20503;-68
2021/01/15 09:12:34;;;;;;;6.47;5.43;;;0.40;91.30;;;;;;6274316;28;20473;-70
2021/01/15 09:15:37;;;;;;;9.23;5.40;;;0.50;91.00;;;;;;6274858;28;20470;-72
2021/01/15 09:18:39;;;;;;;9.97;5.20;;;0.60;90.70;;;;;;6267555;28;20481;-64
2021/01/15 09:21:49;;;;;;;5.70;4.73;;;0.70;90.50;;;;;;6274443;28;21016;-70
2021/01/15 09:24:52;;;;;;;5.93;4.80;;;0.80;90.30;;;;;;6274164;28;20608;-68
2021/01/15 09:27:55;;;;;;;6.17;4.20;;;0.90;90.20;;;;;;6274116;28;20485;-66
2021/01/15 09:30:58;;;;;;;6.50;3.80;;;1.00;89.30;;;;;;6274087;28;20470;-64
2021/01/15 09:34:01;;;;;;;7.33;4.00;;;1.10;88.30;;;;;;6266606;28;20978;-67
2021/01/15 09:37:03;;;;;;;4.80;3.50;;;1.20;87.60;;;;;;6268746;28;20467;-68
2021/01/15 09:40:08;;;;;;;4.17;3.77;;;1.30;87.30;;;;;;6262594;28;20475;-65
2021/01/15 09:43:11;;;;;;;17.27;7.87;;;1.40;86.10;;;;;;6264280;28;20494;-65
2021/01/15 09:46:25;;;;;;;14.23;8.30;;;1.60;86.00;;;;;;6263107;28;20930;-64
2021/01/15 09:49:31;;;;;;;15.60;8.87;;;1.80;89.00;;;;;;6265388;28;20526;-64
2021/01/15 09:52:33;;;;;;;13.33;9.80;;;2.10;87.60;;;;;;6263654;28;20478;-65
2021/01/15 09:55:36;;;;;;;15.83;9.33;;;2.20;87.40;;;;;;6253798;28;20996;-66
2021/01/15 09:58:38;;;;;;;16.53;10.70;;;2.30;87.40;;;;;;6253777;28;20485;-62
2021/01/15 10:01:45;;;;;;;22.13;11.63;;;2.30;89.00;;;;;;6265926;28;20557;-70
2021/01/15 10:04:47;;;;;;;14.53;11.40;;;2.40;88.50;;;;;;6278475;28;20481;-67
2021/01/15 10:07:50;;;;;;;15.37;11.10;;;2.50;87.20;;;;;;6271127;28;20470;-70
2021/01/15 10:10:52;;;;;;;16.60;11.43;;;2.60;87.30;;;;;;6253566;28;20475;-69
2021/01/15 10:13:55;;;;;;;15.13;11.33;;;2.70;86.80;;;;;;6253197;28;21053;-62
2021/01/15 10:16:59;;;;;;;13.53;11.37;;;2.90;85.80;;;;;;6253934;28;20474;-65
2021/01/15 10:20:07;;;;;;;14.40;11.70;;;2.90;85.70;;;;;;6252993;28;20470;-68
2021/01/15 10:23:09;;;;;;;20.23;12.10;;;3.20;85.20;;;;;;6252199;28;20479;-66
2021/01/15 10:26:12;;;;;;;23.80;12.40;;;3.40;84.20;;;;;;6253125;28;20470;-66
2021/01/15 10:29:15;;;;;;;13.37;10.37;;;3.60;83.90;;;;;;6253121;28;20984;-66
2021/01/15 10:32:18;;;;;;;13.17;10.50;;;3.80;82.90;;;;;;6253034;28;20803;-66
2021/01/15 10:35:21;;;;;;;19.63;11.83;;;4.00;81.20;;;;;;6261678;28;20826;-66
2021/01/15 10:38:23;;;;;;;15.33;11.20;;;4.20;80.70;;;;;;6277310;28;20482;-65
2021/01/15 10:41:31;;;;;;;19.53;13.07;;;4.40;80.10;;;;;;6277728;28;20470;-70
2021/01/15 10:44:33;;;;;;;16.80;10.53;;;4.70;78.70;;;;;;6276691;28;20469;-61
2021/01/15 10:47:40;;;;;;;17.70;10.30;;;5.10;77.10;;;;;;6273316;28;20474;-65
2021/01/15 10:50:48;;;;;;;16.17;10.47;;;5.90;73.50;;;;;;6277714;28;20883;-65
2021/01/15 10:53:50;;;;;;;15.80;10.17;;;6.50;70.70;;;;;;6277157;28;20487;-64
2021/01/15 10:56:53;;;;;;;20.33;10.17;;;6.80;69.00;;;;;;6277130;28;20446;-64
2021/01/15 10:59:56;;;;;;;16.53;10.10;;;6.80;68.50;;;;;;6277200;28;20458;-64
2021/01/15 11:03:00;;;;;;;13.10;9.50;;;7.20;66.40;;;;;;6261332;28;20521;-61
2021/01/15 11:06:02;;;;;;;19.37;9.90;;;7.20;64.10;;;;;;6252609;28;20536;-62
2021/01/15 11:09:05;;;;;;;21.40;10.03;;;7.30;64.00;;;;;;6262640;28;20466;-61
2021/01/15 11:12:30;;;;;;;15.57;10.10;;;7.60;62.10;;;;;;6268328;28;20471;-60
2021/01/15 11:15:32;;;;;;;11.27;7.90;;;8.10;59.80;;;;;;6253054;28;20491;-62
2021/01/15 11:18:35;;;;;;;13.60;8.73;;;8.40;57.60;;;;;;6251860;28;20966;-62
2021/01/15 11:21:37;;;;;;;17.07;9.90;;;8.90;56.60;;;;;;6251862;28;20970;-61
2021/01/15 11:24:40;;;;;;;13.70;8.23;;;9.70;55.10;;;;;;6251610;28;20466;-60
2021/01/15 11:27:43;;;;;;;13.43;8.27;;;11.70;50.90;;;;;;6251658;28;20865;-60
2021/01/15 11:30:46;;;;;;;12.93;7.60;;;15.30;43.20;;;;;;6251583;28;20463;-60
2021/01/15 11:33:50;;;;;;;15.60;7.93;;;18.40;36.90;;;;;;6251666;28;20489;-61
2021/01/15 11:36:52;;;;;;;11.00;7.70;;;21.00;30.40;;;;;;6251288;28;20475;-60
2021/01/15 11:39:55;;;;;;;18.87;9.13;;;22.20;28.20;;;;;;6251657;28;20479;-61
2021/01/15 11:42:57;;;;;;;18.40;8.50;;;21.40;27.40;;;;;;6251614;28;20240;-61
2021/01/15 11:46:00;;;;;;;17.00;8.60;;;19.00;28.00;;;;;;6251521;28;20244;-61
2021/01/15 11:49:04;;;;;;;16.60;8.90;;;16.90;29.00;;;;;;6242097;28;20483;-61
2021/01/15 11:52:07;;;;;;;14.67;7.20;;;14.90;31.00;;;;;;6251034;28;20540;-61
2021/01/15 11:55:11;;;;;;;9.90;7.53;;;13.40;32.80;;;;;;6251168;28;20556;-61
2021/01/15 11:58:13;;;;;;;11.53;8.50;;;12.30;35.00;;;;;;6250604;28;20479;-60
2021/01/15 12:01:16;;;;;;;11.60;8.90;;;11.40;36.60;;;;;;6250830;28;20477;-59
2021/01/15 12:04:19;;;;;;;13.27;9.07;;;10.60;38.10;;;;;;6250772;28;20463;-60
2021/01/15 12:07:21;;;;;;;14.00;8.97;;;10.00;39.60;;;;;;6269483;28;20481;-60
2021/01/15 12:10:24;;;;;;;23.50;9.23;;;9.10;41.60;;;;;;6254917;28;20483;-59
2021/01/15 12:13:26;;;;;;;7.37;5.93;;;8.80;42.80;;;;;;6250785;28;20478;-60
2021/01/15 12:16:29;;;;;;;7.47;3.77;;;8.50;42.60;;;;;;6250470;28;20896;-61
2021/01/15 12:19:32;;;;;;;3.97;2.90;;;8.20;41.50;;;;;;6250574;28;20474;-61
2021/01/15 12:22:34;;;;;;;10.97;2.47;;;7.90;41.40;;;;;;6250022;28;20471;-60
2021/01/15 12:25:39;;;;;;;3.13;1.77;;;7.60;41.50;;;;;;6250542;28;20479;-60
2021/01/15 12:28:41;;;;;;;2.90;1.70;;;7.40;41.00;;;;;;6250058;28;20479;-62
2021/01/15 12:31:44;;;;;;;2.13;1.77;;;7.20;41.50;;;;;;6250324;28;20474;-61
2021/01/15 12:34:47;;;;;;;2.40;1.70;;;7.00;41.70;;;;;;6249954;28;20494;-61
2021/01/15 12:37:49;;;;;;;5.53;2.13;;;7.00;42.30;;;;;;6249943;28;20475;-61
2021/01/15 12:40:52;;;;;;;2.73;2.20;;;6.90;42.70;;;;;;6250200;28;20490;-60
2021/01/15 12:43:54;;;;;;;2.00;1.80;;;7.00;43.00;;;;;;6249967;28;20471;-60
2021/01/15 12:46:57;;;;;;;1.87;1.77;;;6.90;43.40;;;;;;6249941;28;20479;-59
2021/01/15 12:50:00;;;;;;;2.27;2.07;;;6.90;43.20;;;;;;6249844;28;20475;-60
2021/01/15 12:53:02;;;;;;;1.77;1.67;;;7.00;43.10;;;;;;6241043;28;20489;-61
2021/01/15 12:56:05;;;;;;;4.33;2.40;;;7.30;42.70;;;;;;6249713;28;20483;-60
2021/01/15 12:59:07;;;;;;;5.60;3.00;;;7.40;41.90;;;;;;6249764;28;20990;-59
2021/01/15 13:02:10;;;;;;;4.07;2.73;;;7.70;42.30;;;;;;6249907;28;20467;-59
2021/01/15 13:05:14;;;;;;;5.70;2.23;;;10.20;39.90;;;;;;6250065;28;20477;-59
2021/01/15 13:08:17;;;;;;;2.27;2.17;;;11.50;35.40;;;;;;6252905;28;20474;-60
2021/01/15 13:11:19;;;;;;;2.13;1.93;;;10.90;34.60;;;;;;6273962;28;20484;-59
2021/01/15 13:14:33;;;;;;;2.87;1.63;;;9.90;36.50;;;;;;6274121;28;20482;-59
2021/01/15 13:17:50;;;;;;;3.07;1.90;;;9.00;38.70;;;;;;6274286;28;20462;-61
2021/01/15 13:20:53;;;;;;;1.83;1.57;;;8.60;40.30;;;;;;6274277;28;20423;-59
2021/01/15 13:23:56;;;;;;;2.47;1.93;;;9.40;39.60;;;;;;6274495;28;20555;-60
2021/01/15 13:26:59;;;;;;;2.60;1.87;;;9.80;39.10;;;;;;6274031;28;20466;-60
2021/01/15 13:30:01;;;;;;;2.43;1.93;;;10.90;36.60;;;;;;6273994;28;21070;-60
2021/01/15 13:33:24;;;;;;;9.63;3.00;;;10.30;36.20;;;;;;6274258;28;20467;-60
2021/01/15 13:36:27;;;;;;;1.97;1.87;;;9.50;37.40;;;;;;6273766;28;20800;-62
2021/01/15 13:39:30;;;;;;;3.60;2.20;;;8.80;38.90;;;;;;6274048;28;20475;-62
2021/01/15 13:42:32;;;;;;;1.73;1.63;;;8.50;42.90;;;;;;6274025;28;20470;-64
2021/01/15 13:45:34;;;;;;;3.20;2.00;;;8.30;42.70;;;;;;6273337;28;20553;-63
2021/01/15 13:48:38;;;;;;;7.17;5.10;;;8.00;40.90;;;;;;6271720;28;20474;-62
2021/01/15 13:51:42;;;;;;;9.40;3.93;;;7.80;41.40;;;;;;6271975;28;20555;-62
2021/01/15 13:54:44;;;;;;;14.17;8.73;;;9.60;40.50;;;;;;6266919;28;20815;-63
2021/01/15 13:57:47;;;;;;;3.53;1.97;;;13.20;34.90;;;;;;6273145;28;20474;-63
2021/01/15 14:00:49;;;;;;;2.43;1.00;;;15.80;30.20;;;;;;6274136;28;20469;-67
2021/01/15 14:03:52;;;;;;;3.00;1.70;;;16.70;27.60;;;;;;6250946;28;20490;-63
2021/01/15 14:07:00;;;;;;;2.67;1.47;;;15.50;27.60;;;;;;6248881;28;20993;-63
2021/01/15 14:10:08;;;;;;;4.80;1.40;;;13.30;28.50;;;;;;6267900;28;20497;-62
2021/01/15 14:13:10;;;;;;;5.13;1.57;;;11.70;30.00;;;;;;6273819;28;20470;-62
2021/01/15 14:16:13;;;;;;;1.97;1.70;;;10.60;31.00;;;;;;6273580;28;20485;-62
2021/01/15 14:19:15;;;;;;;2.43;1.83;;;9.50;34.10;;;;;;6273542;28;21020;-62
2021/01/15 14:22:18;;;;;;;3.90;2.03;;;8.50;35.30;;;;;;6274142;28;20489;-62
2021/01/15 14:25:21;;;;;;;3.20;1.87;;;7.80;37.00;;;;;;6277954;28;20639;-62
2021/01/15 14:28:23;;;;;;;3.67;1.77;;;7.20;38.70;;;;;;6277744;28;20489;-62
2021/01/15 14:31:34;;;;;;;1.97;1.87;;;6.80;39.30;;;;;;6277943;28;20822;-63
2021/01/15 14:34:36;;;;;;;3.93;1.97;;;6.50;39.80;;;;;;6278101;28;20482;-63
2021/01/15 14:37:43;;;;;;;1.83;1.73;;;6.20;40.50;;;;;;6277673;28;20482;-63
2021/01/15 14:40:46;;;;;;;2.10;1.73;;;6.00;41.30;;;;;;6277254;28;20524;-62
2021/01/15 14:43:48;;;;;;;1.90;1.70;;;5.90;42.00;;;;;;6277606;28;20469;-61
2021/01/15 14:46:50;;;;;;;2.00;1.90;;;5.50;41.70;;;;;;6277102;28;21313;-63
2021/01/15 14:49:53;;;;;;;2.17;1.80;;;5.40;42.40;;;;;;6277412;28;20474;-63
2021/01/15 14:52:56;;;;;;;2.90;2.10;;;5.30;42.80;;;;;;6277765;28;20473;-62
2021/01/15 14:55:58;;;;;;;1.80;1.70;;;5.10;43.00;;;;;;6277220;28;20516;-61
2021/01/15 14:59:01;;;;;;;3.60;1.90;;;5.10;43.00;;;;;;6277031;28;20473;-63
2021/01/15 15:02:03;;;;;;;4.17;1.80;;;4.90;44.10;;;;;;6263777;28;20471;-61
2021/01/15 15:05:07;;;;;;;2.63;2.03;;;4.80;44.10;;;;;;6252309;28;20529;-62
2021/01/15 15:08:10;;;;;;;2.30;2.10;;;4.80;44.50;;;;;;6254316;28;20501;-63
2021/01/15 15:11:17;;;;;;;2.70;1.90;;;4.70;44.80;;;;;;6277021;28;20471;-63
2021/01/15 15:14:20;;;;;;;2.57;2.10;;;4.70;44.90;;;;;;6276744;28;20493;-62
2021/01/15 15:17:22;;;;;;;2.30;2.10;;;4.60;44.50;;;;;;6276933;28;20823;-63
2021/01/15 15:20:25;;;;;;;6.20;2.97;;;4.50;44.80;;;;;;6276614;28;20556;-63
2021/01/15 15:23:28;;;;;;;3.37;1.83;;;4.50;45.30;;;;;;6276614;28;20474;-63
2021/01/15 15:26:30;;;;;;;2.20;1.87;;;4.50;45.70;;;;;;6276506;28;20969;-63
2021/01/15 15:29:36;;;;;;;6.40;3.50;;;4.50;45.50;;;;;;6276295;28;20493;-64
2021/01/15 15:32:38;;;;;;;2.07;1.90;;;4.40;45.70;;;;;;6276733;28;20529;-64
2021/01/15 15:35:42;;;;;;;3.00;2.10;;;4.30;45.60;;;;;;6276398;28;20504;-64
2021/01/15 15:38:47;;;;;;;7.00;3.00;;;4.30;46.40;;;;;;6276113;28;20933;-64
2021/01/15 15:41:53;;;;;;;2.93;2.43;;;4.20;46.10;;;;;;6276173;28;20917;-66
2021/01/15 15:44:58;;;;;;;4.87;2.30;;;4.20;46.10;;;;;;6276100;28;20458;-67
2021/01/15 15:48:00;;;;;;;3.33;2.33;;;4.20;46.20;;;;;;6275604;28;20839;-69
2021/01/15 15:51:03;;;;;;;4.40;2.90;;;4.10;46.50;;;;;;6276299;28;20477;-64
2021/01/15 15:54:07;;;;;;;2.40;2.20;;;4.10;46.40;;;;;;6275868;28;20485;-64
2021/01/15 15:57:09;;;;;;;4.07;2.67;;;4.10;46.50;;;;;;6275576;28;20470;-66